sensor_id;sensor_type;location;lat;lon;timestamp;P1;durP1;ratioP1;P2;durP2;ratioP2
25962;SDS011;13760;52.588;13.406;2022-11-20T00:00:34;34.13;;;18.90;;
25962;SDS011;13760;52.588;13.406;2022-11-20T00:02:59;34.83;;;18.65;;
25962;SDS011;13760;52.588;13.406;2022-11-20T00:05:25;33.08;;;18.75;;
25962;SDS011;13760;52.588;13.406;2022-11-20T00:07:50;33.65;;;18.48;;
25962;SDS011;13760;52.588;13.406;2022-11-20T00:10:16;40.30;;;19.38;;
25962;SDS011;13760;52.588;13.406;2022-11-20T00:12:41;40.72;;;20.15;;
25962;SDS011;13760;52.588;13.406;2022-11-20T00:15:07;40.53;;;20.52;;
25962;SDS011;13760;52.588;13.406;2022-11-20T00:17:33;38.55;;;18.67;;
25962;SDS011;13760;52.588;13.406;2022-11-20T00:19:58;39.25;;;20.02;;
25962;SDS011;13760;52.588;13.406;2022-11-20T00:22:24;33.78;;;18.52;;
25962;SDS011;13760;52.588;13.406;2022-11-20T00:24:49;35.22;;;18.67;;
25962;SDS011;13760;52.588;13.406;2022-11-20T00:27:15;34.28;;;18.88;;
25962;SDS011;13760;52.588;13.406;2022-11-20T00:29:40;35.13;;;18.67;;
25962;SDS011;13760;52.588;13.406;2022-11-20T00:32:06;32.50;;;17.88;;
25962;SDS011;13760;52.588;13.406;2022-11-20T00:34:31;31.58;;;17.75;;
25962;SDS011;13760;52.588;13.406;2022-11-20T00:36:57;35.08;;;17.95;;
25962;SDS011;13760;52.588;13.406;2022-11-20T00:39:22;29.95;;;17.27;;
25962;SDS011;13760;52.588;13.406;2022-11-20T00:41:48;34.83;;;18.55;;
25962;SDS011;13760;52.588;13.406;2022-11-20T00:44:13;33.28;;;18.20;;
25962;SDS011;13760;52.588;13.406;2022-11-20T00:46:39;34.42;;;17.55;;
25962;SDS011;13760;52.588;13.406;2022-11-20T00:49:04;31.90;;;17.92;;
25962;SDS011;13760;52.588;13.406;2022-11-20T00:51:30;30.67;;;17.92;;
25962;SDS011;13760;52.588;13.406;2022-11-20T00:53:56;32.72;;;17.60;;
25962;SDS011;13760;52.588;13.406;2022-11-20T00:56:22;30.50;;;17.02;;
25962;SDS011;13760;52.588;13.406;2022-11-20T00:58:48;32.05;;;17.45;;
25962;SDS011;13760;52.588;13.406;2022-11-20T01:01:15;30.08;;;16.75;;
25962;SDS011;13760;52.588;13.406;2022-11-20T01:03:44;32.10;;;18.25;;
25962;SDS011;13760;52.588;13.406;2022-11-20T01:06:12;29.35;;;16.83;;
25962;SDS011;13760;52.588;13.406;2022-11-20T01:08:40;33.55;;;17.95;;
25962;SDS011;13760;52.588;13.406;2022-11-20T01:11:07;31.52;;;17.00;;
25962;SDS011;13760;52.588;13.406;2022-11-20T01:13:37;31.90;;;17.52;;
25962;SDS011;13760;52.588;13.406;2022-11-20T01:16:07;34.03;;;17.23;;
25962;SDS011;13760;52.588;13.406;2022-11-20T01:18:36;31.90;;;17.17;;
25962;SDS011;13760;52.588;13.406;2022-11-20T01:21:07;34.42;;;18.25;;
25962;SDS011;13760;52.588;13.406;2022-11-20T01:23:37;35.58;;;17.23;;
25962;SDS011;13760;52.588;13.406;2022-11-20T01:26:11;31.70;;;17.17;;
25962;SDS011;13760;52.588;13.406;2022-11-20T01:28:39;30.88;;;17.33;;
25962;SDS011;13760;52.588;13.406;2022-11-20T01:31:12;32.75;;;16.80;;
25962;SDS011;13760;52.588;13.406;2022-11-20T01:33:41;29.33;;;16.98;;
25962;SDS011;13760;52.588;13.406;2022-11-20T01:36:08;31.45;;;17.48;;
25962;SDS011;13760;52.588;13.406;2022-11-20T01:38:34;32.20;;;17.58;;
25962;SDS011;13760;52.588;13.406;2022-11-20T01:40:59;32.92;;;17.80;;
25962;SDS011;13760;52.588;13.406;2022-11-20T01:43:25;34.88;;;18.35;;
25962;SDS011;13760;52.588;13.406;2022-11-20T01:48:44;35.03;;;17.48;;
25962;SDS011;13760;52.588;13.406;2022-11-20T01:51:28;39.08;;;17.45;;
25962;SDS011;13760;52.588;13.406;2022-11-20T01:54:01;38.25;;;18.40;;
25962;SDS011;13760;52.588;13.406;2022-11-20T01:56:29;33.70;;;19.20;;
25962;SDS011;13760;52.588;13.406;2022-11-20T01:59:01;32.97;;;17.85;;
25962;SDS011;13760;52.588;13.406;2022-11-20T02:01:28;32.58;;;17.17;;
25962;SDS011;13760;52.588;13.406;2022-11-20T02:03:53;32.78;;;17.83;;
25962;SDS011;13760;52.588;13.406;2022-11-20T02:06:24;38.22;;;17.45;;
25962;SDS011;13760;52.588;13.406;2022-11-20T02:08:52;32.85;;;18.15;;
25962;SDS011;13760;52.588;13.406;2022-11-20T02:11:18;32.17;;;17.50;;
25962;SDS011;13760;52.588;13.406;2022-11-20T02:13:44;39.15;;;19.65;;
25962;SDS011;13760;52.588;13.406;2022-11-20T02:18:49;37.63;;;18.30;;
25962;SDS011;13760;52.588;13.406;2022-11-20T02:21:19;33.95;;;18.88;;
25962;SDS011;13760;52.588;13.406;2022-11-20T02:26:42;32.72;;;18.65;;
25962;SDS011;13760;52.588;13.406;2022-11-20T02:29:25;32.33;;;18.05;;
25962;SDS011;13760;52.588;13.406;2022-11-20T02:31:55;32.03;;;19.00;;
25962;SDS011;13760;52.588;13.406;2022-11-20T02:34:23;37.05;;;18.35;;
25962;SDS011;13760;52.588;13.406;2022-11-20T02:36:49;34.97;;;18.30;;
25962;SDS011;13760;52.588;13.406;2022-11-20T02:39:17;33.25;;;18.65;;
25962;SDS011;13760;52.588;13.406;2022-11-20T02:45:06;33.67;;;18.45;;
25962;SDS011;13760;52.588;13.406;2022-11-20T02:47:32;35.72;;;18.52;;
25962;SDS011;13760;52.588;13.406;2022-11-20T02:49:58;33.72;;;18.98;;
25962;SDS011;13760;52.588;13.406;2022-11-20T02:52:23;35.10;;;18.33;;
25962;SDS011;13760;52.588;13.406;2022-11-20T02:54:49;35.00;;;19.85;;
25962;SDS011;13760;52.588;13.406;2022-11-20T02:57:15;31.92;;;17.85;;
25962;SDS011;13760;52.588;13.406;2022-11-20T02:59:40;36.42;;;19.25;;
25962;SDS011;13760;52.588;13.406;2022-11-20T03:02:06;34.25;;;19.50;;
25962;SDS011;13760;52.588;13.406;2022-11-20T03:04:31;36.80;;;20.60;;
25962;SDS011;13760;52.588;13.406;2022-11-20T03:06:57;35.08;;;18.50;;
25962;SDS011;13760;52.588;13.406;2022-11-20T03:09:22;37.03;;;19.48;;
25962;SDS011;13760;52.588;13.406;2022-11-20T03:11:48;34.75;;;19.48;;
25962;SDS011;13760;52.588;13.406;2022-11-20T03:14:13;35.47;;;19.10;;
25962;SDS011;13760;52.588;13.406;2022-11-20T03:16:39;31.42;;;18.52;;
25962;SDS011;13760;52.588;13.406;2022-11-20T03:19:05;33.78;;;19.35;;
25962;SDS011;13760;52.588;13.406;2022-11-20T03:21:32;33.50;;;19.05;;
25962;SDS011;13760;52.588;13.406;2022-11-20T03:23:58;33.25;;;18.80;;
25962;SDS011;13760;52.588;13.406;2022-11-20T03:26:25;33.50;;;19.17;;
25962;SDS011;13760;52.588;13.406;2022-11-20T03:28:52;34.92;;;19.25;;
25962;SDS011;13760;52.588;13.406;2022-11-20T03:31:21;34.13;;;20.05;;
25962;SDS011;13760;52.588;13.406;2022-11-20T03:33:48;34.42;;;19.88;;
25962;SDS011;13760;52.588;13.406;2022-11-20T03:36:14;36.05;;;19.92;;
25962;SDS011;13760;52.588;13.406;2022-11-20T03:38:41;38.72;;;19.98;;
25962;SDS011;13760;52.588;13.406;2022-11-20T03:41:08;37.33;;;20.42;;
25962;SDS011;13760;52.588;13.406;2022-11-20T03:43:39;38.72;;;21.00;;
25962;SDS011;13760;52.588;13.406;2022-11-20T03:46:04;37.70;;;19.80;;
25962;SDS011;13760;52.588;13.406;2022-11-20T03:48:30;37.92;;;20.45;;
25962;SDS011;13760;52.588;13.406;2022-11-20T03:51:09;35.20;;;19.77;;
25962;SDS011;13760;52.588;13.406;2022-11-20T03:53:40;35.88;;;20.10;;
25962;SDS011;13760;52.588;13.406;2022-11-20T03:56:08;34.97;;;20.05;;
25962;SDS011;13760;52.588;13.406;2022-11-20T03:58:34;37.47;;;20.58;;
25962;SDS011;13760;52.588;13.406;2022-11-20T04:01:11;37.20;;;20.70;;
25962;SDS011;13760;52.588;13.406;2022-11-20T04:03:38;42.03;;;21.70;;
25962;SDS011;13760;52.588;13.406;2022-11-20T04:06:06;36.70;;;20.40;;
25962;SDS011;13760;52.588;13.406;2022-11-20T04:08:37;36.30;;;21.17;;
25962;SDS011;13760;52.588;13.406;2022-11-20T04:13:36;38.47;;;20.48;;
25962;SDS011;13760;52.588;13.406;2022-11-20T04:16:02;37.55;;;20.83;;
25962;SDS011;13760;52.588;13.406;2022-11-20T04:18:28;34.53;;;20.10;;
25962;SDS011;13760;52.588;13.406;2022-11-20T04:20:55;43.42;;;20.55;;
25962;SDS011;13760;52.588;13.406;2022-11-20T04:23:22;41.40;;;21.05;;
25962;SDS011;13760;52.588;13.406;2022-11-20T04:25:47;40.90;;;21.70;;
25962;SDS011;13760;52.588;13.406;2022-11-20T04:28:13;40.00;;;20.75;;
25962;SDS011;13760;52.588;13.406;2022-11-20T04:30:38;39.42;;;21.30;;
25962;SDS011;13760;52.588;13.406;2022-11-20T04:33:04;35.13;;;20.50;;
25962;SDS011;13760;52.588;13.406;2022-11-20T04:35:29;33.90;;;19.25;;
25962;SDS011;13760;52.588;13.406;2022-11-20T04:37:55;37.13;;;20.75;;
25962;SDS011;13760;52.588;13.406;2022-11-20T04:40:20;39.08;;;21.60;;
25962;SDS011;13760;52.588;13.406;2022-11-20T04:42:46;36.28;;;21.05;;
25962;SDS011;13760;52.588;13.406;2022-11-20T04:45:11;38.20;;;21.58;;
25962;SDS011;13760;52.588;13.406;2022-11-20T04:47:37;37.00;;;20.52;;
25962;SDS011;13760;52.588;13.406;2022-11-20T04:50:02;40.08;;;22.17;;
25962;SDS011;13760;52.588;13.406;2022-11-20T04:52:28;39.78;;;21.75;;
25962;SDS011;13760;52.588;13.406;2022-11-20T04:54:53;38.17;;;21.23;;
25962;SDS011;13760;52.588;13.406;2022-11-20T04:57:19;41.33;;;20.85;;
25962;SDS011;13760;52.588;13.406;2022-11-20T04:59:45;37.70;;;21.15;;
25962;SDS011;13760;52.588;13.406;2022-11-20T05:02:11;39.83;;;21.75;;
25962;SDS011;13760;52.588;13.406;2022-11-20T05:04:36;43.67;;;22.42;;
25962;SDS011;13760;52.588;13.406;2022-11-20T05:07:02;36.63;;;21.10;;
25962;SDS011;13760;52.588;13.406;2022-11-20T05:09:28;42.35;;;21.85;;
25962;SDS011;13760;52.588;13.406;2022-11-20T05:11:54;39.47;;;20.83;;
25962;SDS011;13760;52.588;13.406;2022-11-20T05:14:19;37.13;;;21.20;;
25962;SDS011;13760;52.588;13.406;2022-11-20T05:16:45;38.25;;;21.88;;
25962;SDS011;13760;52.588;13.406;2022-11-20T05:19:11;37.63;;;21.02;;
25962;SDS011;13760;52.588;13.406;2022-11-20T05:21:36;38.35;;;20.70;;
25962;SDS011;13760;52.588;13.406;2022-11-20T05:24:02;41.38;;;20.85;;
25962;SDS011;13760;52.588;13.406;2022-11-20T05:26:27;41.45;;;21.52;;
25962;SDS011;13760;52.588;13.406;2022-11-20T05:28:53;38.80;;;20.98;;
25962;SDS011;13760;52.588;13.406;2022-11-20T05:31:22;39.10;;;20.92;;
25962;SDS011;13760;52.588;13.406;2022-11-20T05:33:49;40.75;;;21.55;;
25962;SDS011;13760;52.588;13.406;2022-11-20T05:36:14;40.65;;;21.50;;
25962;SDS011;13760;52.588;13.406;2022-11-20T05:38:41;40.30;;;21.40;;
25962;SDS011;13760;52.588;13.406;2022-11-20T05:41:14;37.53;;;21.25;;
25962;SDS011;13760;52.588;13.406;2022-11-20T05:43:42;39.67;;;21.33;;
25962;SDS011;13760;52.588;13.406;2022-11-20T05:46:11;38.78;;;20.95;;
25962;SDS011;13760;52.588;13.406;2022-11-20T05:48:39;38.17;;;21.77;;
25962;SDS011;13760;52.588;13.406;2022-11-20T05:51:06;36.17;;;20.25;;
25962;SDS011;13760;52.588;13.406;2022-11-20T05:53:34;40.75;;;20.95;;
25962;SDS011;13760;52.588;13.406;2022-11-20T05:56:01;37.28;;;20.50;;
25962;SDS011;13760;52.588;13.406;2022-11-20T05:58:31;40.40;;;21.10;;
25962;SDS011;13760;52.588;13.406;2022-11-20T06:01:07;40.83;;;20.60;;
25962;SDS011;13760;52.588;13.406;2022-11-20T06:03:39;38.80;;;21.17;;
25962;SDS011;13760;52.588;13.406;2022-11-20T06:06:07;39.85;;;21.77;;
25962;SDS011;13760;52.588;13.406;2022-11-20T06:08:33;40.00;;;21.10;;
25962;SDS011;13760;52.588;13.406;2022-11-20T06:11:02;38.92;;;21.30;;
25962;SDS011;13760;52.588;13.406;2022-11-20T06:13:32;39.60;;;21.08;;
25962;SDS011;13760;52.588;13.406;2022-11-20T06:15:58;40.92;;;21.90;;
25962;SDS011;13760;52.588;13.406;2022-11-20T06:18:25;36.47;;;20.42;;
25962;SDS011;13760;52.588;13.406;2022-11-20T06:20:59;38.78;;;20.73;;
25962;SDS011;13760;52.588;13.406;2022-11-20T06:23:35;37.88;;;21.25;;
25962;SDS011;13760;52.588;13.406;2022-11-20T06:26:02;35.95;;;20.35;;
25962;SDS011;13760;52.588;13.406;2022-11-20T06:28:29;38.08;;;19.88;;
25962;SDS011;13760;52.588;13.406;2022-11-20T06:30:55;39.67;;;20.98;;
25962;SDS011;13760;52.588;13.406;2022-11-20T06:33:20;39.60;;;21.77;;
25962;SDS011;13760;52.588;13.406;2022-11-20T06:35:46;40.13;;;21.10;;
25962;SDS011;13760;52.588;13.406;2022-11-20T06:38:11;40.42;;;22.02;;
25962;SDS011;13760;52.588;13.406;2022-11-20T06:40:39;44.35;;;21.23;;
25962;SDS011;13760;52.588;13.406;2022-11-20T06:43:06;41.05;;;21.13;;
25962;SDS011;13760;52.588;13.406;2022-11-20T06:45:32;42.20;;;21.40;;
25962;SDS011;13760;52.588;13.406;2022-11-20T06:47:57;39.85;;;21.58;;
25962;SDS011;13760;52.588;13.406;2022-11-20T06:50:23;38.25;;;20.33;;
25962;SDS011;13760;52.588;13.406;2022-11-20T06:52:52;41.67;;;21.48;;
25962;SDS011;13760;52.588;13.406;2022-11-20T06:55:17;38.95;;;20.05;;
25962;SDS011;13760;52.588;13.406;2022-11-20T06:57:43;39.00;;;21.17;;
25962;SDS011;13760;52.588;13.406;2022-11-20T07:00:08;38.97;;;20.27;;
25962;SDS011;13760;52.588;13.406;2022-11-20T07:02:34;37.72;;;20.60;;
25962;SDS011;13760;52.588;13.406;2022-11-20T07:05:00;41.13;;;20.92;;
25962;SDS011;13760;52.588;13.406;2022-11-20T07:07:25;41.28;;;21.15;;
25962;SDS011;13760;52.588;13.406;2022-11-20T07:09:51;39.65;;;20.45;;
25962;SDS011;13760;52.588;13.406;2022-11-20T07:12:16;40.15;;;21.77;;
25962;SDS011;13760;52.588;13.406;2022-11-20T07:14:42;38.45;;;20.70;;
25962;SDS011;13760;52.588;13.406;2022-11-20T07:17:07;37.92;;;20.55;;
25962;SDS011;13760;52.588;13.406;2022-11-20T07:19:33;38.83;;;20.40;;
25962;SDS011;13760;52.588;13.406;2022-11-20T07:21:58;38.78;;;19.98;;
25962;SDS011;13760;52.588;13.406;2022-11-20T07:24:24;37.80;;;20.80;;
25962;SDS011;13760;52.588;13.406;2022-11-20T07:26:49;35.88;;;20.23;;
25962;SDS011;13760;52.588;13.406;2022-11-20T07:29:15;42.38;;;22.30;;
25962;SDS011;13760;52.588;13.406;2022-11-20T07:31:41;37.78;;;21.38;;
25962;SDS011;13760;52.588;13.406;2022-11-20T07:34:07;36.08;;;20.00;;
25962;SDS011;13760;52.588;13.406;2022-11-20T07:36:33;39.35;;;21.83;;
25962;SDS011;13760;52.588;13.406;2022-11-20T07:38:59;39.17;;;20.83;;
25962;SDS011;13760;52.588;13.406;2022-11-20T07:41:24;37.30;;;20.50;;
25962;SDS011;13760;52.588;13.406;2022-11-20T07:43:50;40.25;;;20.45;;
25962;SDS011;13760;52.588;13.406;2022-11-20T07:46:15;38.55;;;21.25;;
25962;SDS011;13760;52.588;13.406;2022-11-20T07:48:41;38.25;;;20.75;;
25962;SDS011;13760;52.588;13.406;2022-11-20T07:51:06;38.70;;;19.65;;
25962;SDS011;13760;52.588;13.406;2022-11-20T07:53:32;38.40;;;20.45;;
25962;SDS011;13760;52.588;13.406;2022-11-20T07:56:01;35.20;;;19.50;;
25962;SDS011;13760;52.588;13.406;2022-11-20T07:58:28;37.95;;;20.50;;
25962;SDS011;13760;52.588;13.406;2022-11-20T08:00:54;37.40;;;20.17;;
25962;SDS011;13760;52.588;13.406;2022-11-20T08:03:20;39.22;;;20.90;;
25962;SDS011;13760;52.588;13.406;2022-11-20T08:05:45;37.42;;;21.02;;
25962;SDS011;13760;52.588;13.406;2022-11-20T08:08:11;34.90;;;20.55;;
25962;SDS011;13760;52.588;13.406;2022-11-20T08:10:36;36.88;;;20.95;;
25962;SDS011;13760;52.588;13.406;2022-11-20T08:13:02;39.78;;;21.48;;
25962;SDS011;13760;52.588;13.406;2022-11-20T08:15:50;44.08;;;23.88;;
25962;SDS011;13760;52.588;13.406;2022-11-20T08:18:16;39.13;;;22.23;;
25962;SDS011;13760;52.588;13.406;2022-11-20T08:20:42;42.75;;;24.35;;
25962;SDS011;13760;52.588;13.406;2022-11-20T08:23:08;46.63;;;25.40;;
25962;SDS011;13760;52.588;13.406;2022-11-20T08:25:34;44.88;;;25.33;;
25962;SDS011;13760;52.588;13.406;2022-11-20T08:28:02;49.85;;;26.95;;
25962;SDS011;13760;52.588;13.406;2022-11-20T08:30:29;45.90;;;26.35;;
25962;SDS011;13760;52.588;13.406;2022-11-20T08:33:00;51.17;;;25.77;;
25962;SDS011;13760;52.588;13.406;2022-11-20T08:35:33;47.15;;;25.50;;
25962;SDS011;13760;52.588;13.406;2022-11-20T08:38:03;48.15;;;24.98;;
25962;SDS011;13760;52.588;13.406;2022-11-20T08:40:29;43.72;;;23.92;;
25962;SDS011;13760;52.588;13.406;2022-11-20T08:43:01;41.13;;;22.65;;
25962;SDS011;13760;52.588;13.406;2022-11-20T08:45:26;45.35;;;23.42;;
25962;SDS011;13760;52.588;13.406;2022-11-20T08:47:52;40.35;;;22.48;;
25962;SDS011;13760;52.588;13.406;2022-11-20T08:50:17;37.95;;;22.27;;
25962;SDS011;13760;52.588;13.406;2022-11-20T08:52:43;40.53;;;21.73;;
25962;SDS011;13760;52.588;13.406;2022-11-20T08:55:09;41.00;;;22.15;;
25962;SDS011;13760;52.588;13.406;2022-11-20T08:57:35;37.60;;;21.73;;
25962;SDS011;13760;52.588;13.406;2022-11-20T09:00:03;39.15;;;20.50;;
25962;SDS011;13760;52.588;13.406;2022-11-20T09:02:30;39.13;;;21.52;;
25962;SDS011;13760;52.588;13.406;2022-11-20T09:04:55;34.45;;;20.90;;
25962;SDS011;13760;52.588;13.406;2022-11-20T09:07:21;38.45;;;21.95;;
25962;SDS011;13760;52.588;13.406;2022-11-20T09:09:47;36.58;;;21.05;;
25962;SDS011;13760;52.588;13.406;2022-11-20T09:12:12;39.90;;;21.48;;
25962;SDS011;13760;52.588;13.406;2022-11-20T09:14:38;41.03;;;21.65;;
25962;SDS011;13760;52.588;13.406;2022-11-20T09:17:04;37.38;;;21.45;;
25962;SDS011;13760;52.588;13.406;2022-11-20T09:19:32;40.75;;;20.65;;
25962;SDS011;13760;52.588;13.406;2022-11-20T09:21:58;36.50;;;21.02;;
25962;SDS011;13760;52.588;13.406;2022-11-20T09:24:24;43.58;;;24.17;;
25962;SDS011;13760;52.588;13.406;2022-11-20T09:26:53;40.55;;;22.42;;
25962;SDS011;13760;52.588;13.406;2022-11-20T09:29:18;39.38;;;21.40;;
25962;SDS011;13760;52.588;13.406;2022-11-20T09:31:44;43.92;;;21.42;;
25962;SDS011;13760;52.588;13.406;2022-11-20T09:34:09;36.95;;;21.85;;
25962;SDS011;13760;52.588;13.406;2022-11-20T09:36:35;34.17;;;20.13;;
25962;SDS011;13760;52.588;13.406;2022-11-20T09:39:00;37.13;;;21.75;;
25962;SDS011;13760;52.588;13.406;2022-11-20T09:41:39;35.42;;;21.20;;
25962;SDS011;13760;52.588;13.406;2022-11-20T09:44:36;35.55;;;21.10;;
25962;SDS011;13760;52.588;13.406;2022-11-20T09:47:08;36.13;;;20.58;;
25962;SDS011;13760;52.588;13.406;2022-11-20T09:52:36;33.75;;;19.80;;
25962;SDS011;13760;52.588;13.406;2022-11-20T09:55:21;36.05;;;19.98;;
25962;SDS011;13760;52.588;13.406;2022-11-20T09:57:48;37.08;;;20.40;;
25962;SDS011;13760;52.588;13.406;2022-11-20T10:00:17;32.45;;;19.67;;
25962;SDS011;13760;52.588;13.406;2022-11-20T10:02:55;34.25;;;18.88;;
25962;SDS011;13760;52.588;13.406;2022-11-20T10:05:33;35.95;;;19.33;;
25962;SDS011;13760;52.588;13.406;2022-11-20T10:11:04;35.45;;;19.52;;
25962;SDS011;13760;52.588;13.406;2022-11-20T10:13:44;35.05;;;19.33;;
25962;SDS011;13760;52.588;13.406;2022-11-20T10:19:32;31.35;;;18.20;;
25962;SDS011;13760;52.588;13.406;2022-11-20T10:30:23;32.42;;;19.17;;
25962;SDS011;13760;52.588;13.406;2022-11-20T10:32:54;32.20;;;18.85;;
25962;SDS011;13760;52.588;13.406;2022-11-20T10:35:33;34.60;;;18.77;;
25962;SDS011;13760;52.588;13.406;2022-11-20T10:38:03;34.22;;;19.13;;
25962;SDS011;13760;52.588;13.406;2022-11-20T10:40:41;35.17;;;19.15;;
25962;SDS011;13760;52.588;13.406;2022-11-20T10:43:15;31.58;;;18.30;;
25962;SDS011;13760;52.588;13.406;2022-11-20T10:48:24;31.75;;;18.40;;
25962;SDS011;13760;52.588;13.406;2022-11-20T10:50:56;30.67;;;17.67;;
25962;SDS011;13760;52.588;13.406;2022-11-20T10:56:46;28.15;;;18.45;;
25962;SDS011;13760;52.588;13.406;2022-11-20T11:02:20;29.95;;;18.23;;
25962;SDS011;13760;52.588;13.406;2022-11-20T11:04:56;34.58;;;17.08;;
25962;SDS011;13760;52.588;13.406;2022-11-20T11:07:27;29.63;;;17.45;;
25962;SDS011;13760;52.588;13.406;2022-11-20T11:09:58;34.92;;;18.38;;
25962;SDS011;13760;52.588;13.406;2022-11-20T11:12:25;34.53;;;18.63;;
25962;SDS011;13760;52.588;13.406;2022-11-20T11:14:53;29.35;;;17.50;;
25962;SDS011;13760;52.588;13.406;2022-11-20T11:17:27;30.30;;;17.65;;
25962;SDS011;13760;52.588;13.406;2022-11-20T11:24:54;29.15;;;16.65;;
25962;SDS011;13760;52.588;13.406;2022-11-20T11:27:20;28.52;;;15.98;;
25962;SDS011;13760;52.588;13.406;2022-11-20T11:29:46;30.80;;;16.55;;
25962;SDS011;13760;52.588;13.406;2022-11-20T11:32:21;28.67;;;16.85;;
25962;SDS011;13760;52.588;13.406;2022-11-20T11:35:07;30.95;;;16.55;;
25962;SDS011;13760;52.588;13.406;2022-11-20T11:37:48;28.15;;;15.57;;
25962;SDS011;13760;52.588;13.406;2022-11-20T11:40:16;27.38;;;16.50;;
25962;SDS011;13760;52.588;13.406;2022-11-20T11:42:52;27.10;;;17.08;;
25962;SDS011;13760;52.588;13.406;2022-11-20T11:45:21;28.92;;;16.13;;
25962;SDS011;13760;52.588;13.406;2022-11-20T11:47:47;26.63;;;15.32;;
25962;SDS011;13760;52.588;13.406;2022-11-20T11:55:31;28.23;;;16.40;;
25962;SDS011;13760;52.588;13.406;2022-11-20T11:58:02;28.30;;;16.58;;
25962;SDS011;13760;52.588;13.406;2022-11-20T12:00:36;26.13;;;15.63;;
25962;SDS011;13760;52.588;13.406;2022-11-20T12:05:46;29.90;;;16.65;;
25962;SDS011;13760;52.588;13.406;2022-11-20T12:08:21;30.05;;;16.58;;
25962;SDS011;13760;52.588;13.406;2022-11-20T12:13:40;30.17;;;17.02;;
25962;SDS011;13760;52.588;13.406;2022-11-20T12:16:20;28.15;;;16.35;;
25962;SDS011;13760;52.588;13.406;2022-11-20T12:18:51;32.78;;;16.77;;
25962;SDS011;13760;52.588;13.406;2022-11-20T12:23:49;30.10;;;15.60;;
25962;SDS011;13760;52.588;13.406;2022-11-20T12:29:19;27.90;;;16.15;;
25962;SDS011;13760;52.588;13.406;2022-11-20T12:37:16;26.33;;;16.63;;
25962;SDS011;13760;52.588;13.406;2022-11-20T12:39:52;28.33;;;17.02;;
25962;SDS011;13760;52.588;13.406;2022-11-20T12:45:17;24.20;;;14.13;;
25962;SDS011;13760;52.588;13.406;2022-11-20T12:47:58;26.42;;;15.57;;
25962;SDS011;13760;52.588;13.406;2022-11-20T12:50:59;26.42;;;15.85;;
25962;SDS011;13760;52.588;13.406;2022-11-20T13:01:31;25.85;;;16.15;;
25962;SDS011;13760;52.588;13.406;2022-11-20T13:06:52;25.15;;;14.57;;
25962;SDS011;13760;52.588;13.406;2022-11-20T13:09:19;23.23;;;14.18;;
25962;SDS011;13760;52.588;13.406;2022-11-20T13:12:01;23.27;;;13.80;;
25962;SDS011;13760;52.588;13.406;2022-11-20T13:17:41;23.27;;;13.75;;
25962;SDS011;13760;52.588;13.406;2022-11-20T13:20:16;25.08;;;14.38;;
25962;SDS011;13760;52.588;13.406;2022-11-20T13:22:46;23.33;;;14.00;;
25962;SDS011;13760;52.588;13.406;2022-11-20T13:25:22;24.95;;;15.02;;
25962;SDS011;13760;52.588;13.406;2022-11-20T13:27:48;21.45;;;12.77;;
25962;SDS011;13760;52.588;13.406;2022-11-20T13:30:16;20.85;;;12.80;;
25962;SDS011;13760;52.588;13.406;2022-11-20T13:33:04;21.88;;;13.95;;
25962;SDS011;13760;52.588;13.406;2022-11-20T13:35:34;22.10;;;13.85;;
25962;SDS011;13760;52.588;13.406;2022-11-20T13:38:08;26.90;;;14.80;;
25962;SDS011;13760;52.588;13.406;2022-11-20T13:40:37;23.65;;;13.60;;
25962;SDS011;13760;52.588;13.406;2022-11-20T13:46:03;26.08;;;14.88;;
25962;SDS011;13760;52.588;13.406;2022-11-20T13:48:33;16.40;;;11.30;;
25962;SDS011;13760;52.588;13.406;2022-11-20T14:02:20;26.80;;;14.65;;
25962;SDS011;13760;52.588;13.406;2022-11-20T14:04:48;24.00;;;14.55;;
25962;SDS011;13760;52.588;13.406;2022-11-20T14:07:19;27.92;;;15.32;;
25962;SDS011;13760;52.588;13.406;2022-11-20T14:09:52;31.30;;;15.30;;
25962;SDS011;13760;52.588;13.406;2022-11-20T14:14:50;26.30;;;15.32;;
25962;SDS011;13760;52.588;13.406;2022-11-20T14:17:21;29.67;;;14.98;;
25962;SDS011;13760;52.588;13.406;2022-11-20T14:19:50;28.88;;;15.20;;
25962;SDS011;13760;52.588;13.406;2022-11-20T14:22:17;28.52;;;16.50;;
25962;SDS011;13760;52.588;13.406;2022-11-20T14:24:48;28.20;;;15.70;;
25962;SDS011;13760;52.588;13.406;2022-11-20T14:27:25;25.23;;;14.88;;
25962;SDS011;13760;52.588;13.406;2022-11-20T14:29:50;28.67;;;15.48;;
25962;SDS011;13760;52.588;13.406;2022-11-20T14:32:20;27.10;;;15.65;;
25962;SDS011;13760;52.588;13.406;2022-11-20T14:34:51;26.83;;;15.98;;
25962;SDS011;13760;52.588;13.406;2022-11-20T14:37:18;26.38;;;15.80;;
25962;SDS011;13760;52.588;13.406;2022-11-20T14:39:48;28.33;;;15.57;;
25962;SDS011;13760;52.588;13.406;2022-11-20T14:42:24;26.23;;;15.55;;
25962;SDS011;13760;52.588;13.406;2022-11-20T14:44:52;28.15;;;16.88;;
25962;SDS011;13760;52.588;13.406;2022-11-20T14:47:22;26.35;;;15.43;;
25962;SDS011;13760;52.588;13.406;2022-11-20T14:49:51;29.02;;;15.18;;
25962;SDS011;13760;52.588;13.406;2022-11-20T14:52:19;24.98;;;15.60;;
25962;SDS011;13760;52.588;13.406;2022-11-20T14:54:46;30.83;;;17.00;;
25962;SDS011;13760;52.588;13.406;2022-11-20T14:57:26;23.25;;;14.30;;
25962;SDS011;13760;52.588;13.406;2022-11-20T15:00:06;27.17;;;15.45;;
25962;SDS011;13760;52.588;13.406;2022-11-20T15:02:38;28.52;;;15.50;;
25962;SDS011;13760;52.588;13.406;2022-11-20T15:05:11;28.05;;;15.35;;
25962;SDS011;13760;52.588;13.406;2022-11-20T15:07:42;28.45;;;16.00;;
25962;SDS011;13760;52.588;13.406;2022-11-20T15:10:27;27.15;;;15.18;;
25962;SDS011;13760;52.588;13.406;2022-11-20T15:12:54;25.88;;;14.52;;
25962;SDS011;13760;52.588;13.406;2022-11-20T15:15:28;27.75;;;15.50;;
25962;SDS011;13760;52.588;13.406;2022-11-20T15:17:57;29.92;;;16.20;;
25962;SDS011;13760;52.588;13.406;2022-11-20T15:20:24;29.77;;;15.88;;
25962;SDS011;13760;52.588;13.406;2022-11-20T15:22:56;31.10;;;15.90;;
25962;SDS011;13760;52.588;13.406;2022-11-20T15:25:21;28.42;;;14.85;;
25962;SDS011;13760;52.588;13.406;2022-11-20T15:27:49;26.50;;;15.60;;
25962;SDS011;13760;52.588;13.406;2022-11-20T15:30:18;28.23;;;15.07;;
25962;SDS011;13760;52.588;13.406;2022-11-20T15:32:45;27.20;;;15.25;;
25962;SDS011;13760;52.588;13.406;2022-11-20T15:35:11;30.80;;;15.75;;
25962;SDS011;13760;52.588;13.406;2022-11-20T15:37:38;35.30;;;21.73;;
25962;SDS011;13760;52.588;13.406;2022-11-20T15:40:05;29.65;;;15.82;;
25962;SDS011;13760;52.588;13.406;2022-11-20T15:42:31;27.67;;;14.85;;
25962;SDS011;13760;52.588;13.406;2022-11-20T15:44:57;27.98;;;15.98;;
25962;SDS011;13760;52.588;13.406;2022-11-20T15:47:27;28.05;;;15.40;;
25962;SDS011;13760;52.588;13.406;2022-11-20T15:49:58;24.77;;;14.52;;
25962;SDS011;13760;52.588;13.406;2022-11-20T15:52:24;25.70;;;15.27;;
25962;SDS011;13760;52.588;13.406;2022-11-20T15:54:50;24.30;;;15.25;;
25962;SDS011;13760;52.588;13.406;2022-11-20T15:57:16;25.23;;;14.68;;